createdAt,value
2024-01-29T04:27:23.435Z,372.95
2024-01-29T04:30:26.890Z,449.48
2024-01-29T04:33:29.718Z,434.08
2024-01-29T04:36:33.093Z,496.35
2024-01-29T04:39:38.369Z,496.23
2024-01-29T04:42:41.479Z,451.08
2024-01-29T04:45:44.234Z,464.70
2024-01-29T04:48:47.342Z,728.30
2024-01-29T04:51:50.579Z,732.67
2024-01-29T04:54:56.606Z,474.05
2024-01-29T04:58:00.733Z,487.52
2024-01-29T05:01:04.543Z,765.08
2024-01-29T05:04:07.590Z,536.90
2024-01-29T05:07:10.717Z,633.95
2024-01-29T05:10:13.588Z,503.25
2024-01-29T05:13:17.239Z,524.65
2024-01-29T05:16:20.434Z,475.95
2024-01-29T05:19:23.970Z,491.15
2024-01-29T05:22:26.799Z,466.50
2024-01-29T05:25:29.788Z,473.05
2024-01-29T05:28:32.471Z,750.78
2024-01-29T05:31:35.488Z,436.00
2024-01-29T05:34:38.256Z,498.37
2024-01-29T05:37:41.488Z,517.03
2024-01-29T05:40:44.142Z,482.25
2024-01-29T05:43:47.206Z,464.25
2024-01-29T05:46:49.889Z,522.87
2024-01-29T05:49:52.980Z,525.58
2024-01-29T05:52:55.719Z,548.00
2024-01-29T05:55:59.323Z,743.37
2024-01-29T05:59:02.080Z,870.25
2024-01-29T06:02:05.537Z,486.15
2024-01-29T06:05:09.065Z,743.30
2024-01-29T06:08:12.257Z,666.70
2024-01-29T06:11:15.745Z,509.02
2024-01-29T06:14:19.973Z,553.55
2024-01-29T06:17:23.315Z,517.25
2024-01-29T06:20:26.273Z,749.88
2024-01-29T06:23:29.897Z,762.10
2024-01-29T06:26:34.391Z,537.95
2024-01-29T06:29:37.570Z,556.33
2024-01-29T06:32:40.325Z,606.55
2024-01-29T06:35:43.824Z,559.15
2024-01-29T06:38:47.349Z,662.50
2024-01-29T06:41:51.728Z,557.00
2024-01-29T06:44:55.634Z,554.42
2024-01-29T06:48:01.529Z,596.70
2024-01-29T06:51:05.265Z,604.65
2024-01-29T06:54:08.652Z,598.88
2024-01-29T06:57:11.379Z,582.08
2024-01-29T07:00:14.882Z,648.35
2024-01-29T07:03:17.725Z,717.12
2024-01-29T07:06:21.000Z,684.47
2024-01-29T07:09:25.986Z,694.03
2024-01-29T07:12:29.576Z,763.53
2024-01-29T07:15:32.752Z,744.62
2024-01-29T07:18:37.598Z,774.85
2024-01-29T07:21:42.925Z,761.58
2024-01-29T07:24:47.844Z,767.00
2024-01-29T07:27:50.861Z,845.70
2024-01-29T07:30:54.309Z,867.30
2024-01-29T07:33:57.396Z,899.53
2024-01-29T07:37:00.850Z,924.00
2024-01-29T07:40:04.911Z,992.92
2024-01-29T07:43:08.262Z,999.90
2024-01-29T07:46:13.679Z,985.62
2024-01-29T07:49:16.807Z,996.30
2024-01-29T07:52:19.628Z,983.65
2024-01-29T07:55:24.352Z,999.90
2024-01-29T07:58:27.119Z,980.72
2024-01-29T08:01:30.252Z,999.90
2024-01-29T08:04:33.706Z,999.90
2024-01-29T08:07:36.598Z,999.90
2024-01-29T08:10:39.535Z,996.97
2024-01-29T08:13:42.205Z,999.90
2024-01-29T08:16:45.208Z,999.90
2024-01-29T08:19:48.346Z,950.83
2024-01-29T08:22:52.695Z,999.90
2024-01-29T08:25:55.527Z,999.90
2024-01-29T08:28:59.334Z,968.97
2024-01-29T08:32:02.189Z,956.03
2024-01-29T08:35:05.702Z,960.80
2024-01-29T08:38:09.396Z,999.90
2024-01-29T08:41:14.102Z,972.12
2024-01-29T08:44:16.989Z,999.90
2024-01-29T08:47:20.158Z,999.62
2024-01-29T08:50:22.917Z,999.90
2024-01-29T08:53:26.465Z,971.63
2024-01-29T08:56:31.035Z,998.35
2024-01-29T08:59:34.083Z,972.38
2024-01-29T09:02:38.729Z,919.47
2024-01-29T09:05:43.346Z,958.65
2024-01-29T09:08:46.130Z,887.17
2024-01-29T09:11:49.146Z,991.62
2024-01-29T09:14:51.817Z,968.88
2024-01-29T09:17:54.842Z,999.90
2024-01-29T09:20:59.707Z,995.58
2024-01-29T09:24:02.675Z,925.28
2024-01-29T09:27:05.803Z,968.10
2024-01-29T09:30:09.543Z,943.15
2024-01-29T09:33:21.718Z,927.00
2024-01-29T09:36:26.030Z,932.08
2024-01-29T09:39:30.866Z,906.90
2024-01-29T09:42:34.981Z,923.60
2024-01-29T09:45:39.054Z,940.67
2024-01-29T09:48:42.866Z,945.63
2024-01-29T09:51:48.416Z,879.78
2024-01-29T09:54:52.711Z,961.17
2024-01-29T09:57:55.622Z,897.53
2024-01-29T10:01:00.682Z,935.53
2024-01-29T10:04:03.971Z,860.60
2024-01-29T10:07:07.064Z,853.05
2024-01-29T10:10:11.223Z,857.53
2024-01-29T10:13:14.873Z,870.83
2024-01-29T10:16:18.112Z,885.03
2024-01-29T10:19:20.940Z,915.30
2024-01-29T10:22:26.755Z,901.28
2024-01-29T10:25:30.881Z,879.63
2024-01-29T10:28:34.012Z,896.45
2024-01-29T10:31:37.551Z,881.55
2024-01-29T10:34:40.848Z,919.25
2024-01-29T10:37:49.109Z,835.10
2024-01-29T10:40:54.306Z,840.45
2024-01-29T10:43:59.239Z,893.90
2024-01-29T10:47:09.670Z,794.80
2024-01-29T10:50:17.292Z,904.85
2024-01-29T10:53:21.332Z,822.87
2024-01-29T10:56:24.656Z,836.20
2024-01-29T10:59:28.167Z,909.80
2024-01-29T11:02:31.674Z,818.58
2024-01-29T11:05:35.702Z,968.75
2024-01-29T11:08:41.303Z,883.10
2024-01-29T11:11:47.949Z,810.47
2024-01-29T11:15:01.210Z,887.92
2024-01-29T11:18:05.688Z,840.92
2024-01-29T11:21:12.160Z,802.97
2024-01-29T11:24:15.151Z,942.13
2024-01-29T11:27:17.858Z,773.05
2024-01-29T11:30:22.524Z,736.00
2024-01-29T11:33:25.627Z,722.45
2024-01-29T11:36:28.935Z,691.95
2024-01-29T11:39:31.604Z,642.42
2024-01-29T11:42:34.968Z,652.60
2024-01-29T11:45:37.819Z,511.12
2024-01-29T11:48:42.008Z,664.78
2024-01-29T11:51:44.975Z,495.50
2024-01-29T11:54:49.058Z,454.05
2024-01-29T11:57:54.861Z,451.13
2024-01-29T12:00:58.567Z,412.77
2024-01-29T12:04:02.652Z,465.88
2024-01-29T12:07:08.317Z,406.17
2024-01-29T12:10:13.149Z,385.92
2024-01-29T12:13:22.132Z,389.45
2024-01-29T12:16:26.334Z,363.77
2024-01-29T12:19:29.108Z,312.00
2024-01-29T12:22:33.124Z,293.92
2024-01-29T12:25:37.772Z,255.62
2024-01-29T12:28:40.976Z,200.93
2024-01-29T12:31:43.760Z,128.30
2024-01-29T12:34:47.754Z,82.97
2024-01-29T12:37:51.248Z,42.70
2024-01-29T12:40:59.456Z,13.43
2024-01-29T12:44:12.567Z,19.55
2024-01-29T12:47:16.508Z,12.57
2024-01-29T12:50:19.425Z,19.77
2024-01-29T12:53:22.963Z,20.58
2024-01-29T12:56:31.571Z,18.65
2024-01-29T13:02:37.612Z,17.75
2024-01-29T13:05:40.857Z,30.55
2024-01-29T13:08:44.283Z,15.80
2024-01-29T13:11:49.538Z,29.48
2024-01-29T13:14:52.214Z,24.48
2024-01-29T13:17:55.735Z,31.27
2024-01-29T13:20:58.617Z,20.70
2024-01-29T13:24:07.952Z,136.40
2024-01-29T13:27:11.103Z,102.47
2024-01-29T13:30:14.396Z,213.95
2024-01-29T13:33:17.619Z,277.15
2024-01-29T13:36:21.461Z,300.70
2024-01-29T13:39:24.757Z,338.85
2024-01-29T13:42:27.768Z,360.65
2024-01-29T13:45:30.678Z,444.88
2024-01-29T13:48:37.214Z,439.85
2024-01-29T13:51:40.098Z,532.50
2024-01-29T13:54:43.767Z,525.12
2024-01-29T13:57:46.967Z,591.03
2024-01-29T14:00:50.267Z,556.83
2024-01-29T14:03:54.671Z,664.42
2024-01-29T14:07:02.253Z,723.08
2024-01-29T14:10:06.113Z,736.67
2024-01-29T14:13:10.019Z,767.47
2024-01-29T14:16:13.725Z,807.50
2024-01-29T14:19:17.632Z,795.78
2024-01-29T14:22:22.372Z,864.05
2024-01-29T14:25:26.504Z,781.37
2024-01-29T14:28:29.777Z,885.20
2024-01-29T14:31:32.868Z,905.22
2024-01-29T14:34:36.224Z,972.20
2024-01-29T14:37:41.397Z,927.50
2024-01-29T14:40:44.566Z,948.85
2024-01-29T14:43:48.788Z,883.50
2024-01-29T14:46:51.902Z,974.58
2024-01-29T14:49:55.285Z,855.87
2024-01-29T14:52:58.537Z,998.15
2024-01-29T14:56:01.503Z,955.33
2024-01-29T14:59:04.757Z,983.70
2024-01-29T15:02:10.894Z,917.30
2024-01-29T15:05:16.341Z,944.35
2024-01-29T15:08:19.292Z,998.05
2024-01-29T15:11:22.764Z,932.25
2024-01-29T15:14:25.608Z,940.35
2024-01-29T15:17:30.877Z,953.30
2024-01-29T15:20:35.468Z,999.90
2024-01-29T15:23:38.934Z,926.83
2024-01-29T15:26:42.069Z,997.67
2024-01-29T15:29:45.474Z,992.22
2024-01-29T15:32:48.429Z,952.22
2024-01-29T15:35:51.672Z,992.30
2024-01-29T15:38:54.433Z,924.25
2024-01-29T15:41:57.691Z,999.90
2024-01-29T15:45:00.568Z,999.90
2024-01-29T15:48:04.244Z,952.28
2024-01-29T15:51:07.409Z,989.97
2024-01-29T15:54:11.602Z,978.45
2024-01-29T15:57:14.568Z,989.97
2024-01-29T16:00:18.101Z,999.90
2024-01-29T16:03:21.217Z,999.90
2024-01-29T16:06:24.234Z,999.87
2024-01-29T16:09:27.665Z,986.03
2024-01-29T16:12:30.953Z,995.42
2024-01-29T16:15:35.412Z,998.85
2024-01-29T16:18:38.884Z,997.58
2024-01-29T16:21:43.400Z,944.33
2024-01-29T16:24:46.318Z,999.90
2024-01-29T16:27:51.261Z,999.90
2024-01-29T16:30:54.104Z,998.85
2024-01-29T16:33:57.614Z,999.90
2024-01-29T16:37:00.773Z,999.90
2024-01-29T16:40:10.474Z,953.25
2024-01-29T16:46:17.312Z,999.90
2024-01-29T16:49:22.828Z,999.90
2024-01-29T16:52:26.044Z,999.13
